createdAt,value
2018-04-02T00:04:36.313Z,8.87
2018-04-02T00:09:38.932Z,7.93
2018-04-02T00:14:41.579Z,8.40
2018-04-02T00:19:44.209Z,8.40
2018-04-02T00:24:46.849Z,8.57
2018-04-02T00:29:50.233Z,6.93
2018-04-02T00:34:52.866Z,7.43
2018-04-02T00:39:55.496Z,7.37
2018-04-02T00:44:58.145Z,7.63
2018-04-02T00:50:00.767Z,8.90
2018-04-02T00:55:03.405Z,9.27
2018-04-02T01:00:06.025Z,9.33
2018-04-02T01:05:09.630Z,8.13
2018-04-02T01:10:12.266Z,8.63
2018-04-02T01:15:14.889Z,9.53
2018-04-02T01:20:17.539Z,9.20
2018-04-02T01:25:20.178Z,9.20
2018-04-02T01:30:22.807Z,8.93
2018-04-02T01:35:26.222Z,10.37
2018-04-02T01:40:28.855Z,10.33
2018-04-02T01:45:31.511Z,10.20
2018-04-02T01:50:34.898Z,10.67
2018-04-02T01:55:37.527Z,10.63
2018-04-02T02:00:40.171Z,9.90
2018-04-02T02:05:42.813Z,9.73
2018-04-02T02:10:45.438Z,10.00
2018-04-02T02:15:48.086Z,10.07
2018-04-02T02:20:51.494Z,9.70
2018-04-02T02:25:54.124Z,9.20
2018-04-02T02:30:56.769Z,9.87
2018-04-02T02:36:00.178Z,10.73
2018-04-02T02:41:02.824Z,11.10
2018-04-02T02:46:05.459Z,10.47
2018-04-02T02:51:08.870Z,11.33
2018-04-02T02:56:11.498Z,10.77
2018-04-02T03:01:14.136Z,11.80
2018-04-02T03:06:16.766Z,12.13
2018-04-02T03:11:20.176Z,11.90
2018-04-02T03:16:22.801Z,11.73
2018-04-02T03:21:25.429Z,12.53
2018-04-02T03:26:28.056Z,13.13
2018-04-02T03:31:30.680Z,11.63
2018-04-02T03:36:34.310Z,12.27
2018-04-02T03:41:36.942Z,13.23
2018-04-02T03:46:39.591Z,15.57
2018-04-02T03:51:42.222Z,15.90
2018-04-02T03:56:44.849Z,15.83
2018-04-02T04:01:47.490Z,15.10
2018-04-02T04:06:50.139Z,15.97
2018-04-02T04:11:53.524Z,15.97
2018-04-02T04:16:56.164Z,16.20
2018-04-02T04:21:58.786Z,16.70
2018-04-02T04:27:01.442Z,16.40
2018-04-02T04:32:04.081Z,16.30
2018-04-02T04:37:07.472Z,18.33
2018-04-02T04:42:10.113Z,17.30
2018-04-02T04:47:12.741Z,16.93
2018-04-02T04:52:15.388Z,18.87
2018-04-02T04:57:18.038Z,18.53
2018-04-02T05:02:21.429Z,17.77
2018-04-02T05:07:24.081Z,14.77
2018-04-02T05:12:26.732Z,18.57
2018-04-02T05:17:30.126Z,17.60
2018-04-02T05:22:32.762Z,18.40
2018-04-02T05:27:35.417Z,19.70
2018-04-02T05:32:49.415Z,17.80
2018-04-02T05:37:52.806Z,19.47
2018-04-02T05:42:55.498Z,19.27
2018-04-02T05:47:58.149Z,19.20
2018-04-02T05:53:00.798Z,20.37
2018-04-02T05:58:03.425Z,19.20
2018-04-02T06:03:06.064Z,19.03
2018-04-02T06:08:08.699Z,19.73
2018-04-02T06:13:11.343Z,16.93
2018-04-02T06:18:13.997Z,19.33
2018-04-02T06:23:17.392Z,18.17
2018-04-02T06:28:20.040Z,18.27
2018-04-02T06:33:28.473Z,18.70
2018-04-02T06:38:31.116Z,17.77
2018-04-02T06:43:33.762Z,19.10
2018-04-02T06:48:36.573Z,19.17
2018-04-02T06:53:39.222Z,19.63
2018-04-02T06:58:42.623Z,18.17
2018-04-02T07:03:45.281Z,18.90
2018-04-02T07:08:48.688Z,18.47
2018-04-02T07:13:51.309Z,20.40
2018-04-02T07:18:53.960Z,19.93
2018-04-02T07:23:56.631Z,18.07
2018-04-02T07:28:59.286Z,20.83
2018-04-02T07:34:01.920Z,18.80
2018-04-02T07:39:05.410Z,20.27
2018-04-02T07:44:08.838Z,18.77
2018-04-02T07:49:11.499Z,18.97
2018-04-02T07:54:14.125Z,18.70
2018-04-02T07:59:17.530Z,17.10
2018-04-02T08:04:20.194Z,16.17
2018-04-02T08:09:22.838Z,17.70
2018-04-02T08:14:25.653Z,17.47
2018-04-02T08:19:28.309Z,14.00
2018-04-02T08:24:31.720Z,15.77
2018-04-02T08:29:34.346Z,17.60
2018-04-02T08:34:36.999Z,15.30
2018-04-02T08:39:40.417Z,17.50
2018-04-02T08:50:11.634Z,15.53
2018-04-02T08:55:14.285Z,14.90
2018-04-02T09:00:16.921Z,14.73
2018-04-02T09:05:19.621Z,14.53
2018-04-02T09:10:22.237Z,14.80
2018-04-02T09:15:24.867Z,14.30
2018-04-02T09:20:27.506Z,13.87
2018-04-02T09:25:30.141Z,14.97
2018-04-02T09:30:32.774Z,14.53
2018-04-02T09:35:36.194Z,13.70
2018-04-02T09:40:38.830Z,13.43
2018-04-02T09:45:41.489Z,13.90
2018-04-02T09:50:44.117Z,13.97
2018-04-02T09:55:46.742Z,12.67
2018-04-02T10:00:50.138Z,11.83
2018-04-02T10:05:52.778Z,11.77
2018-04-02T10:10:55.404Z,10.97
2018-04-02T10:15:59.030Z,10.00
2018-04-02T10:21:01.667Z,9.67
2018-04-02T11:07:23.729Z,9.67
2018-04-02T11:09:56.938Z,9.70
2018-04-02T11:12:29.582Z,8.07
2018-04-02T11:15:02.183Z,9.57
2018-04-02T11:17:35.537Z,8.73
2018-04-02T11:20:08.152Z,9.20
2018-04-02T11:22:40.745Z,7.93
2018-04-02T11:25:18.737Z,7.90
2018-04-02T11:27:52.238Z,8.47
2018-04-02T11:30:24.865Z,7.87
2018-04-02T11:32:57.469Z,8.00
2018-04-02T11:35:31.084Z,7.80
2018-04-02T11:38:03.681Z,7.63
2018-04-02T11:40:36.317Z,7.67
2018-04-02T11:43:09.087Z,7.57
2018-04-02T11:45:45.186Z,6.90
2018-04-02T11:48:17.985Z,7.50
2018-04-02T11:50:50.649Z,6.27
2018-04-02T11:53:24.013Z,6.57
2018-04-02T11:55:56.752Z,6.03
2018-04-02T11:58:30.105Z,6.73
2018-04-02T12:01:02.738Z,5.97
2018-04-02T12:03:36.514Z,6.70
2018-04-02T12:06:09.150Z,5.80
2018-04-02T12:08:41.746Z,5.90
2018-04-02T12:11:16.043Z,5.60
2018-04-02T12:13:48.642Z,6.20
2018-04-02T12:16:21.280Z,6.07
2018-04-02T12:18:54.650Z,5.87
2018-04-02T12:21:27.262Z,6.40
2018-04-02T12:23:59.848Z,6.50
2018-04-02T12:26:32.470Z,6.07
2018-04-02T12:29:05.067Z,6.50
2018-04-02T12:31:37.707Z,7.10
2018-04-02T12:34:10.302Z,6.50
2018-04-02T12:36:42.934Z,5.67
2018-04-02T12:39:15.555Z,5.80
2018-04-02T12:41:48.169Z,5.90
2018-04-02T12:44:20.787Z,6.37
2018-04-02T12:46:55.007Z,5.43
2018-04-02T12:49:27.607Z,6.10
2018-04-02T12:52:00.218Z,6.00
2018-04-02T12:54:33.577Z,4.60
2018-04-02T12:57:06.198Z,4.83
2018-04-02T12:59:39.573Z,4.70
2018-04-02T13:02:12.219Z,5.17
2018-04-02T13:04:45.611Z,4.10
2018-04-02T13:07:18.217Z,4.10
2018-04-02T13:09:51.578Z,4.33
2018-04-02T13:12:24.194Z,4.47
2018-04-02T13:14:56.794Z,3.93
2018-04-02T13:17:29.404Z,4.20
2018-04-02T13:20:02.001Z,4.53
2018-04-02T13:22:35.401Z,4.37
2018-04-02T13:25:11.463Z,4.43
2018-04-02T13:27:44.093Z,4.47
2018-04-02T13:30:16.686Z,3.60
2018-04-02T13:32:49.302Z,4.57
2018-04-02T13:35:21.906Z,4.63
2018-04-02T13:37:54.563Z,4.23
2018-04-02T13:40:27.911Z,4.30
2018-04-02T13:43:00.534Z,4.70
2018-04-02T13:45:33.130Z,4.10
2018-04-02T13:48:06.517Z,4.50
2018-04-02T13:50:39.122Z,4.40
2018-04-02T13:53:12.738Z,4.47
2018-04-02T13:55:45.330Z,4.00
2018-04-02T13:58:17.961Z,4.80
2018-04-02T14:00:51.910Z,4.83
2018-04-02T14:03:24.526Z,4.70
2018-04-02T14:05:57.123Z,4.97
2018-04-02T14:08:29.734Z,4.57
2018-04-02T14:11:03.097Z,4.77
2018-04-02T14:13:35.718Z,4.50
2018-04-02T14:16:08.305Z,4.30
2018-04-02T14:18:40.936Z,4.50
2018-04-02T14:21:15.009Z,4.70
2018-04-02T14:23:47.678Z,4.80
2018-04-02T14:26:20.278Z,4.60
2018-04-02T14:28:54.352Z,4.60
2018-04-02T14:31:27.718Z,4.60
2018-04-02T14:34:00.347Z,4.03
2018-04-02T14:36:32.947Z,4.03
2018-04-02T14:39:06.346Z,4.27
2018-04-02T14:41:39.713Z,4.30
2018-04-02T14:44:12.326Z,4.33
2018-04-02T14:46:44.942Z,4.10
2018-04-02T14:49:18.325Z,4.13
2018-04-02T14:51:50.981Z,4.33
2018-04-02T14:54:23.730Z,4.13
2018-04-02T14:56:57.691Z,3.67
2018-04-02T14:59:30.345Z,4.00
2018-04-02T15:02:03.657Z,3.97
2018-04-02T15:04:38.006Z,4.17
2018-04-02T15:07:11.370Z,4.37
2018-04-02T15:09:43.981Z,4.27
2018-04-02T15:12:16.634Z,4.13
2018-04-02T15:14:49.250Z,4.33
2018-04-02T15:17:21.905Z,3.97
2018-04-02T15:19:56.424Z,3.83
2018-04-02T15:22:29.045Z,4.10
2018-04-02T15:25:04.775Z,4.40
2018-04-02T15:27:37.398Z,3.80
2018-04-02T15:30:10.014Z,3.70
2018-04-02T15:32:42.618Z,3.97
2018-04-02T15:35:15.255Z,3.70
2018-04-02T15:37:47.944Z,3.87
2018-04-02T15:40:20.559Z,4.03
2018-04-02T15:42:53.158Z,3.20
2018-04-02T15:45:27.714Z,3.73
2018-04-02T15:48:00.313Z,3.80
2018-04-02T15:50:32.929Z,4.03
2018-04-02T15:53:06.290Z,3.60
2018-04-02T15:55:38.916Z,4.20
2018-04-02T15:58:11.506Z,4.53
2018-04-02T16:00:44.953Z,4.53
2018-04-02T16:03:17.557Z,4.27
2018-04-02T16:05:50.244Z,4.47
2018-04-02T16:08:23.768Z,4.47
2018-04-02T16:10:56.402Z,4.63
2018-04-02T16:13:28.993Z,4.17
2018-04-02T16:16:02.992Z,4.47
2018-04-02T16:18:35.586Z,4.80
2018-04-02T16:21:08.241Z,4.83
2018-04-02T16:23:40.875Z,6.27
2018-04-02T16:26:13.516Z,5.43
2018-04-02T16:28:46.103Z,6.13
2018-04-02T16:31:18.712Z,4.30
2018-04-02T16:33:51.369Z,4.70
2018-04-02T16:36:23.978Z,4.67
2018-04-02T16:38:56.585Z,4.30
2018-04-02T16:41:29.210Z,4.37
2018-04-02T16:44:01.823Z,4.37
2018-04-02T16:46:34.454Z,5.00
2018-04-02T16:49:07.041Z,4.10
2018-04-02T16:51:40.864Z,4.60
2018-04-02T16:54:13.476Z,4.13
2018-04-02T16:56:46.125Z,4.83
2018-04-02T16:59:19.496Z,4.87
2018-04-02T17:01:52.139Z,4.27
2018-04-02T17:04:25.530Z,4.13
2018-04-02T17:06:58.925Z,4.47
2018-04-02T17:09:31.527Z,4.20
2018-04-02T17:12:04.161Z,4.37
2018-04-02T17:14:36.823Z,4.90
2018-04-02T17:17:10.205Z,3.87
2018-04-02T17:19:42.818Z,4.73
2018-04-02T17:22:16.223Z,4.20
2018-04-02T17:24:49.603Z,4.07
2018-04-02T17:27:22.223Z,4.43
2018-04-02T17:29:54.833Z,4.67
2018-04-02T17:32:28.227Z,4.50
2018-04-02T17:35:00.821Z,4.30
2018-04-02T17:37:33.435Z,4.43
2018-04-02T17:40:06.046Z,4.33
2018-04-02T17:42:38.678Z,4.43
2018-04-02T17:45:11.271Z,5.00
2018-04-02T17:47:43.901Z,4.43
2018-04-02T17:50:17.264Z,4.80
2018-04-02T17:52:49.896Z,4.53
2018-04-02T17:55:23.259Z,4.63
2018-04-02T17:57:55.877Z,4.87
2018-04-02T18:00:28.465Z,4.37
2018-04-02T18:03:01.083Z,5.10
2018-04-02T18:05:34.450Z,4.77
2018-04-02T18:08:07.838Z,4.30
2018-04-02T18:10:40.442Z,10.97
2018-04-02T18:13:13.089Z,49.90
2018-04-02T18:15:46.510Z,55.83
2018-04-02T18:18:19.167Z,18.30
2018-04-02T18:20:51.765Z,6.57
2018-04-02T18:23:24.374Z,7.47
2018-04-02T18:25:57.737Z,5.53
2018-04-02T18:28:30.365Z,5.37
2018-04-02T18:31:02.953Z,9.47
2018-04-02T18:33:35.578Z,6.13
2018-04-02T18:36:08.173Z,4.90
2018-04-02T18:38:40.795Z,4.97
2018-04-02T18:41:13.399Z,4.93
2018-04-02T18:43:46.033Z,5.77
2018-04-02T18:46:19.404Z,5.93
2018-04-02T18:48:52.050Z,7.67
2018-04-02T18:51:24.665Z,12.60
2018-04-02T18:53:57.293Z,6.93
2018-04-02T18:56:29.887Z,5.00
2018-04-02T18:59:02.527Z,4.27
2018-04-02T19:01:35.113Z,4.20
2018-04-02T19:04:07.738Z,5.10
2018-04-02T19:06:40.361Z,6.13
2018-04-02T19:09:13.880Z,4.50
2018-04-02T19:11:47.247Z,4.60
2018-04-02T19:14:19.961Z,4.53
2018-04-02T19:16:52.560Z,5.17
2018-04-02T19:19:25.181Z,5.00
2018-04-02T19:21:57.884Z,6.40
2018-04-02T19:24:30.502Z,6.50
2018-04-02T19:27:03.278Z,7.97
2018-04-02T19:29:38.006Z,8.57
2018-04-02T19:32:10.601Z,7.83
2018-04-02T19:34:43.233Z,6.37
2018-04-02T19:37:15.827Z,7.97
2018-04-02T19:39:48.530Z,6.17
2018-04-02T19:42:21.124Z,6.53
2018-04-02T19:44:53.738Z,6.67
2018-04-02T19:47:27.101Z,6.57
2018-04-02T19:49:59.725Z,10.77
2018-04-02T19:52:35.696Z,7.17
2018-04-02T19:55:08.382Z,6.23
2018-04-02T19:57:40.983Z,6.70
2018-04-02T20:00:13.602Z,7.17
2018-04-02T20:02:46.333Z,8.43
2018-04-02T20:05:19.078Z,6.70
2018-04-02T20:07:51.857Z,6.53
2018-04-02T20:10:24.552Z,6.27
2018-04-02T20:12:57.217Z,7.07
2018-04-02T20:15:30.810Z,8.20
2018-04-02T20:18:03.529Z,7.67
2018-04-02T20:20:36.376Z,8.17
2018-04-02T20:23:09.054Z,7.93
2018-04-02T20:25:41.682Z,7.27
2018-04-02T20:28:14.290Z,8.33
2018-04-02T20:30:46.991Z,6.93
2018-04-02T20:33:19.618Z,6.53
2018-04-02T20:35:52.314Z,6.80
2018-04-02T20:38:25.669Z,6.70
2018-04-02T20:40:58.301Z,6.67
2018-04-02T20:43:30.898Z,6.90
2018-04-02T20:46:03.528Z,6.60
2018-04-02T20:48:36.127Z,6.90
2018-04-02T20:51:09.587Z,6.20
2018-04-02T20:53:42.190Z,6.37
2018-04-02T20:56:15.584Z,5.90
2018-04-02T20:58:48.174Z,6.53
2018-04-02T21:01:20.788Z,6.60
2018-04-02T21:03:54.153Z,7.37
2018-04-02T21:06:26.790Z,7.10
2018-04-02T21:09:00.978Z,7.30
2018-04-02T21:11:33.606Z,6.80
2018-04-02T21:14:06.212Z,6.73
2018-04-02T21:16:38.846Z,7.37
2018-04-02T21:19:11.519Z,9.03
2018-04-02T21:21:44.150Z,9.23
2018-04-02T21:24:16.753Z,8.00
2018-04-02T21:26:49.385Z,8.00
2018-04-02T21:29:21.984Z,7.20
2018-04-02T21:31:54.601Z,7.67
2018-04-02T21:34:27.230Z,7.77
2018-04-02T21:37:00.638Z,7.70
2018-04-02T21:39:33.234Z,7.70
2018-04-02T21:42:06.618Z,7.63
2018-04-02T21:44:39.217Z,8.57
2018-04-02T21:47:11.844Z,9.20
2018-04-02T21:49:45.355Z,8.93
2018-04-02T21:52:17.983Z,8.50
2018-04-02T21:54:50.594Z,8.13
2018-04-02T21:57:23.230Z,8.53
2018-04-02T21:59:56.597Z,8.50
2018-04-02T22:02:29.210Z,8.70
2018-04-02T22:05:01.820Z,7.70
2018-04-02T22:07:35.207Z,8.90
2018-04-02T22:10:07.802Z,8.40
2018-04-02T22:12:40.421Z,8.27
2018-04-02T22:15:13.018Z,8.60
2018-04-02T22:17:45.634Z,8.97
2018-04-02T22:20:18.241Z,9.27
2018-04-02T22:22:50.881Z,9.37
2018-04-02T22:25:24.255Z,9.50
2018-04-02T22:27:56.874Z,9.00
2018-04-02T22:30:30.234Z,8.80
2018-04-02T22:33:02.878Z,9.57
2018-04-02T22:35:36.241Z,9.40
2018-04-02T22:38:08.873Z,9.57
2018-04-02T22:40:42.233Z,9.17
2018-04-02T22:43:14.870Z,9.13
2018-04-02T22:45:47.482Z,9.33
2018-04-02T22:48:20.110Z,10.23
2018-04-02T22:50:52.715Z,10.20
2018-04-02T22:53:25.349Z,9.90
2018-04-02T22:55:58.722Z,10.10
2018-04-02T22:58:31.350Z,10.17
2018-04-02T23:01:04.717Z,9.83
2018-04-02T23:03:37.338Z,10.90
2018-04-02T23:06:10.702Z,10.23
2018-04-02T23:08:43.322Z,11.03
2018-04-02T23:11:15.925Z,11.10
2018-04-02T23:13:48.565Z,11.67
2018-04-02T23:16:21.173Z,11.10
2018-04-02T23:18:53.794Z,11.90
2018-04-02T23:21:26.399Z,11.37
2018-04-02T23:23:59.786Z,10.90
2018-04-02T23:26:32.383Z,11.07
2018-04-02T23:29:05.016Z,11.40
2018-04-02T23:31:37.610Z,12.03
2018-04-02T23:34:10.224Z,11.33
2018-04-02T23:36:42.829Z,10.87
2018-04-02T23:39:15.482Z,12.03
2018-04-02T23:41:48.090Z,11.40
2018-04-02T23:44:20.717Z,12.63
2018-04-02T23:46:53.326Z,11.67
2018-04-02T23:49:25.968Z,11.37
2018-04-02T23:51:58.567Z,13.13
2018-04-02T23:54:31.205Z,12.17
2018-04-02T23:57:04.579Z,12.53
2018-04-02T23:59:37.216Z,14.30
